createdAt,value
2023-04-16T00:00:05.656Z,12.35
2023-04-16T00:05:38.994Z,11.97
2023-04-16T00:10:44.446Z,12.48
2023-04-16T00:15:49.894Z,11.63
2023-04-16T00:20:57.839Z,10.23
2023-04-16T00:26:03.152Z,12.68
2023-04-16T00:31:08.560Z,12.80
2023-04-16T00:36:16.515Z,13.32
2023-04-16T00:41:23.208Z,12.70
2023-04-16T00:46:29.481Z,11.02
2023-04-16T00:51:38.498Z,11.00
2023-04-16T00:56:43.936Z,10.73
2023-04-16T01:01:49.401Z,9.98
2023-04-16T01:07:00.406Z,11.03
2023-04-16T01:12:05.993Z,12.13
2023-04-16T01:17:11.352Z,12.82
2023-04-16T01:22:19.552Z,11.07
2023-04-16T01:27:25.204Z,11.98
2023-04-16T01:32:30.751Z,11.55
2023-04-16T01:37:39.051Z,12.87
2023-04-16T01:42:44.471Z,12.32
2023-04-16T01:47:50.099Z,12.63
2023-04-16T01:52:58.120Z,12.20
2023-04-16T01:58:03.544Z,14.02
2023-04-16T02:03:13.136Z,12.87
2023-04-16T02:08:21.448Z,12.00
2023-04-16T02:13:26.757Z,12.90
2023-04-16T02:18:32.415Z,12.05
2023-04-16T02:23:41.583Z,12.48
2023-04-16T02:28:47.119Z,13.20
2023-04-16T02:33:53.172Z,13.10
2023-04-16T02:39:02.117Z,14.05
2023-04-16T02:44:08.444Z,13.97
2023-04-16T02:49:13.784Z,14.38
2023-04-16T02:54:21.683Z,15.13
2023-04-16T02:59:27.176Z,14.50
2023-04-16T03:04:32.705Z,14.85
2023-04-16T03:09:40.785Z,14.13
2023-04-16T03:14:46.264Z,13.25
2023-04-16T03:19:51.615Z,12.03
2023-04-16T03:25:00.843Z,13.63
2023-04-16T03:30:06.695Z,13.70
2023-04-16T03:35:14.681Z,13.87
2023-04-16T03:40:23.241Z,13.45
2023-04-16T03:45:29.278Z,15.60
2023-04-16T03:50:35.256Z,14.38
2023-04-16T03:55:45.565Z,16.70
2023-04-16T04:00:52.599Z,15.27
2023-04-16T04:05:58.217Z,14.70
2023-04-16T04:11:10.306Z,15.23
2023-04-16T04:16:17.665Z,14.27
2023-04-16T04:21:23.140Z,15.27
2023-04-16T04:26:31.376Z,15.40
2023-04-16T04:31:36.967Z,16.73
2023-04-16T04:36:42.468Z,15.00
2023-04-16T04:41:52.651Z,16.02
2023-04-16T04:46:58.791Z,15.57
2023-04-16T04:52:04.887Z,15.87
2023-04-16T04:57:13.161Z,15.35
2023-04-16T05:02:19.001Z,17.33
2023-04-16T05:07:24.402Z,15.90
2023-04-16T05:12:32.339Z,16.77
2023-04-16T05:17:37.842Z,17.10
2023-04-16T05:22:43.260Z,18.98
2023-04-16T05:27:51.208Z,17.20
2023-04-16T05:32:56.852Z,17.13
2023-04-16T05:38:02.329Z,16.23
2023-04-16T05:43:10.289Z,15.47
2023-04-16T05:48:15.808Z,16.02
2023-04-16T05:53:21.857Z,15.27
2023-04-16T05:58:29.951Z,17.25
2023-04-16T06:03:35.454Z,15.55
2023-04-16T06:08:40.974Z,16.87
2023-04-16T06:13:48.996Z,16.63
2023-04-16T06:18:54.456Z,16.57
2023-04-16T06:23:59.852Z,16.58
2023-04-16T06:29:08.598Z,15.48
2023-04-16T06:34:14.340Z,16.63
2023-04-16T06:39:21.929Z,15.57
2023-04-16T06:44:29.868Z,15.50
2023-04-16T06:49:35.819Z,14.60
2023-04-16T06:54:41.399Z,13.73
2023-04-16T06:59:49.391Z,12.93
2023-04-16T07:04:54.851Z,11.20
2023-04-16T07:10:00.250Z,12.18
2023-04-16T07:15:11.630Z,11.00
2023-04-16T07:20:17.092Z,11.77
2023-04-16T07:25:22.590Z,12.37
2023-04-16T07:30:34.418Z,11.70
2023-04-16T07:35:40.004Z,11.95
2023-04-16T07:40:45.651Z,12.50
2023-04-16T07:45:53.742Z,12.07
2023-04-16T07:50:59.685Z,13.90
2023-04-16T07:56:05.169Z,13.10
2023-04-16T08:01:13.585Z,13.30
2023-04-16T08:06:19.122Z,14.67
2023-04-16T08:11:37.951Z,14.48
2023-04-16T08:16:46.383Z,14.53
2023-04-16T08:21:52.522Z,14.47
2023-04-16T08:27:08.081Z,14.48
2023-04-16T08:32:26.106Z,13.97
2023-04-16T08:37:31.605Z,13.45
2023-04-16T08:42:42.357Z,13.75
2023-04-16T08:47:52.167Z,16.03
2023-04-16T08:53:02.256Z,14.00
2023-04-16T08:58:12.952Z,13.13
2023-04-16T09:03:22.449Z,12.55
2023-04-16T09:08:29.074Z,11.85
2023-04-16T09:13:35.084Z,12.87
2023-04-16T09:18:44.591Z,12.27
2023-04-16T09:23:50.721Z,11.70
2023-04-16T09:28:56.429Z,10.97
2023-04-16T09:34:09.776Z,13.25
2023-04-16T09:39:23.934Z,13.47
2023-04-16T09:44:38.625Z,12.63
2023-04-16T09:49:47.494Z,13.48
2023-04-16T09:54:54.082Z,12.87
2023-04-16T10:00:09.051Z,11.10
2023-04-16T10:05:23.209Z,12.90
2023-04-16T10:10:28.963Z,12.37
2023-04-16T10:15:36.962Z,13.03
2023-04-16T10:20:45.728Z,12.68
2023-04-16T10:25:51.669Z,13.30
2023-04-16T10:30:59.214Z,12.80
2023-04-16T10:36:15.079Z,13.07
2023-04-16T10:41:22.534Z,13.50
2023-04-16T10:46:29.388Z,13.30
2023-04-16T10:51:38.717Z,13.32
2023-04-16T10:56:44.203Z,12.93
2023-04-16T11:01:51.041Z,11.17
2023-04-16T11:07:07.579Z,11.13
2023-04-16T11:12:15.771Z,11.60
2023-04-16T11:17:22.056Z,10.97
2023-04-16T11:22:30.519Z,10.95
2023-04-16T11:27:36.084Z,10.43
2023-04-16T11:32:42.607Z,10.70
2023-04-16T11:37:51.159Z,10.10
2023-04-16T11:42:57.653Z,10.37
2023-04-16T11:48:04.899Z,10.60
2023-04-16T11:53:12.903Z,10.45
2023-04-16T11:58:19.374Z,9.83
2023-04-16T12:03:43.664Z,8.47
2023-04-16T12:08:52.149Z,9.95
2023-04-16T12:14:13.724Z,7.83
2023-04-16T12:19:19.254Z,8.07
2023-04-16T12:24:28.087Z,8.93
2023-04-16T12:29:35.494Z,8.10
2023-04-16T12:34:53.430Z,8.57
2023-04-16T12:40:01.940Z,7.22
2023-04-16T12:45:08.968Z,7.67
2023-04-16T12:50:14.745Z,7.63
2023-04-16T12:55:23.005Z,7.45
2023-04-16T13:00:28.538Z,7.27
2023-04-16T13:05:33.972Z,7.17
2023-04-16T13:10:41.983Z,7.47
2023-04-16T13:15:47.455Z,8.07
2023-04-16T13:20:52.853Z,7.27
2023-04-16T13:26:00.867Z,7.25
2023-04-16T13:31:06.526Z,8.73
2023-04-16T13:36:11.907Z,8.30
2023-04-16T13:41:20.012Z,8.43
2023-04-16T13:46:25.813Z,8.67
2023-04-16T13:51:32.469Z,8.40
2023-04-16T13:56:41.024Z,9.10
2023-04-16T14:01:46.450Z,9.17
2023-04-16T14:06:52.512Z,9.00
2023-04-16T14:12:00.838Z,9.02
2023-04-16T14:17:07.746Z,9.43
2023-04-16T14:22:13.339Z,9.13
2023-04-16T14:27:21.457Z,10.10
2023-04-16T14:32:27.009Z,9.85
2023-04-16T14:37:32.429Z,9.63
2023-04-16T14:42:40.638Z,9.90
2023-04-16T14:47:48.040Z,8.90
2023-04-16T14:52:54.788Z,8.97
2023-04-16T14:58:03.337Z,8.85
2023-04-16T15:03:09.183Z,8.40
2023-04-16T15:08:14.876Z,8.20
2023-04-16T15:13:22.983Z,8.88
2023-04-16T15:18:29.392Z,8.60
2023-04-16T15:23:34.927Z,8.17
2023-04-16T15:28:48.260Z,8.65
2023-04-16T15:33:53.938Z,8.38
2023-04-16T15:38:59.390Z,7.67
2023-04-16T15:44:36.307Z,7.72
2023-04-16T15:49:42.748Z,7.65
2023-04-16T15:54:49.099Z,7.33
2023-04-16T16:00:06.036Z,7.97
2023-04-16T16:05:13.508Z,7.13
2023-04-16T16:10:20.328Z,6.77
2023-04-16T16:15:28.311Z,7.88
2023-04-16T16:20:34.651Z,7.35
2023-04-16T16:25:42.172Z,7.37
2023-04-16T16:30:51.068Z,7.70
2023-04-16T16:35:59.367Z,7.32
2023-04-16T16:41:05.150Z,10.43
2023-04-16T16:46:13.271Z,10.93
2023-04-16T16:51:19.316Z,11.60
2023-04-16T16:56:33.145Z,11.47
2023-04-16T17:02:19.582Z,10.40
2023-04-16T17:08:07.312Z,10.90
2023-04-16T17:13:40.283Z,10.27
2023-04-16T17:18:59.796Z,10.63
2023-04-16T17:24:34.782Z,9.70
2023-04-16T17:30:02.876Z,9.73
2023-04-16T17:35:14.004Z,10.55
2023-04-16T17:40:19.793Z,10.48
2023-04-16T17:45:25.301Z,10.73
2023-04-16T17:50:38.977Z,11.95
2023-04-16T17:55:55.201Z,10.48
2023-04-16T18:01:02.134Z,11.03
2023-04-16T18:06:10.292Z,12.07
2023-04-16T18:11:16.081Z,10.90
2023-04-16T18:16:22.726Z,11.97
2023-04-16T18:21:33.064Z,11.68
2023-04-16T18:26:40.761Z,12.10
2023-04-16T18:31:46.659Z,11.10
2023-04-16T18:36:54.829Z,13.15
2023-04-16T18:42:00.215Z,14.45
2023-04-16T18:47:06.518Z,13.07
2023-04-16T18:52:14.625Z,12.85
2023-04-16T18:57:20.051Z,12.18
2023-04-16T19:02:25.773Z,13.37
2023-04-16T19:18:15.221Z,12.27
2023-04-16T19:23:23.248Z,13.23
2023-04-16T19:28:28.692Z,11.80
2023-04-16T19:33:34.217Z,12.60
2023-04-16T19:38:42.166Z,12.43
2023-04-16T19:43:47.500Z,12.73
2023-04-16T19:48:52.875Z,13.07
2023-04-16T19:54:01.872Z,12.13
2023-04-16T19:59:11.318Z,11.90
2023-04-16T20:04:18.689Z,12.07
2023-04-16T20:09:27.123Z,11.65
2023-04-16T20:14:32.628Z,12.07
2023-04-16T20:19:38.081Z,11.43
2023-04-16T20:24:48.088Z,11.23
2023-04-16T20:29:53.845Z,10.90
2023-04-16T20:35:00.017Z,11.63
2023-04-16T20:40:11.132Z,11.68
2023-04-16T20:45:16.967Z,10.97
2023-04-16T20:50:22.538Z,12.27
2023-04-16T20:55:30.612Z,11.68
2023-04-16T21:00:36.337Z,11.37
2023-04-16T21:05:41.984Z,12.83
2023-04-16T21:10:50.089Z,13.05
2023-04-16T21:15:56.062Z,13.10
2023-04-16T21:21:01.893Z,14.03
2023-04-16T21:26:09.904Z,13.50
2023-04-16T21:31:15.454Z,13.03
2023-04-16T21:36:21.046Z,13.03
2023-04-16T21:41:29.054Z,13.10
2023-04-16T21:46:34.500Z,14.83
2023-04-16T21:51:40.720Z,16.27
2023-04-16T21:56:48.987Z,16.27
2023-04-16T22:01:54.463Z,15.30
2023-04-16T22:07:03.385Z,16.33
2023-04-16T22:12:12.942Z,18.05
2023-04-16T22:17:18.501Z,16.57
2023-04-16T22:22:25.583Z,18.07
2023-04-16T22:27:33.870Z,19.23
2023-04-16T22:32:39.332Z,20.00
2023-04-16T22:37:44.894Z,19.80
2023-04-16T22:42:53.138Z,19.67
2023-04-16T22:47:58.544Z,20.93
2023-04-16T22:53:04.025Z,19.47
2023-04-16T22:58:12.002Z,20.23
2023-04-16T23:03:17.411Z,20.27
2023-04-16T23:08:22.876Z,19.93
2023-04-16T23:13:30.899Z,20.77
2023-04-16T23:18:36.870Z,20.27
2023-04-16T23:23:42.240Z,20.23
2023-04-16T23:28:50.197Z,20.80
2023-04-16T23:33:55.777Z,19.43
2023-04-16T23:39:01.187Z,19.47
2023-04-16T23:44:09.240Z,21.92
2023-04-16T23:49:14.570Z,20.87
2023-04-16T23:54:20.068Z,19.67
2023-04-16T23:59:28.246Z,19.85
